Time;durP1;ratioP1;P1;durP2;ratioP2;P2;SDS_P1;SDS_P2;PMS_P1;PMS_P2;Temp;Humidity;BMP_temperature;BMP_pressure;BME280_temperature;BME280_humidity;BME280_pressure;Samples;Min_cycle;Max_cycle;Signal;HPM_P1;HPM_P2
2024/01/16 00:01:44;;;;;;;6.72;1.60;;;0.70;99.90;;;;;;5022902;28;20041;-67
2024/01/16 00:04:11;;;;;;;9.48;1.50;;;0.70;99.90;;;;;;5042640;28;20037;-67
2024/01/16 00:06:43;;;;;;;14.70;1.60;;;0.70;99.90;;;;;;5014923;28;20102;-67
2024/01/16 00:09:09;;;;;;;7.60;1.42;;;0.70;99.90;;;;;;5030492;28;20041;-67
2024/01/16 00:11:42;;;;;;;9.55;1.52;;;0.70;99.90;;;;;;5037484;28;20044;-68
2024/01/16 00:14:07;;;;;;;12.65;1.52;;;0.70;99.90;;;;;;5020992;28;20412;-67
2024/01/16 00:16:33;;;;;;;11.55;1.40;;;0.70;99.90;;;;;;5033492;28;20030;-67
2024/01/16 00:18:58;;;;;;;6.68;1.73;;;0.70;99.90;;;;;;5022444;28;20045;-67
2024/01/16 00:21:24;;;;;;;8.35;1.50;;;0.60;99.90;;;;;;5034152;28;20037;-67
2024/01/16 00:23:50;;;;;;;12.43;1.45;;;0.60;99.90;;;;;;5032515;28;20423;-67
2024/01/16 00:26:22;;;;;;;12.15;1.52;;;0.60;99.90;;;;;;5018159;28;20092;-67
2024/01/16 00:28:48;;;;;;;5.72;1.30;;;0.60;99.90;;;;;;5042658;28;20039;-67
2024/01/16 00:31:14;;;;;;;5.28;1.20;;;0.60;99.90;;;;;;5024058;28;20132;-68
2024/01/16 00:33:40;;;;;;;6.82;1.33;;;0.60;99.90;;;;;;5022167;28;20037;-67
2024/01/16 00:36:06;;;;;;;7.72;1.48;;;0.50;99.90;;;;;;5017657;28;20038;-68
2024/01/16 00:38:34;;;;;;;5.80;1.20;;;0.50;99.90;;;;;;5036762;28;20069;-68
2024/01/16 00:41:00;;;;;;;6.10;0.88;;;0.50;99.90;;;;;;5031003;28;20124;-68
2024/01/16 00:43:26;;;;;;;4.53;0.85;;;0.50;99.90;;;;;;5039897;28;20132;-67
2024/01/16 00:45:51;;;;;;;6.32;1.10;;;0.50;99.90;;;;;;5043213;28;20033;-68
2024/01/16 00:48:18;;;;;;;10.32;1.20;;;0.50;99.90;;;;;;5026089;28;20052;-68
2024/01/16 00:50:46;;;;;;;3.88;0.77;;;0.40;99.90;;;;;;5040325;28;20045;-68
2024/01/16 00:53:11;;;;;;;3.95;0.98;;;0.40;99.90;;;;;;5033569;28;20037;-67
2024/01/16 00:55:37;;;;;;;7.00;1.17;;;0.30;99.90;;;;;;5016583;28;20119;-68
2024/01/16 00:58:02;;;;;;;4.18;0.90;;;0.30;99.90;;;;;;5017067;28;20041;-68
2024/01/16 01:00:30;;;;;;;9.70;1.95;;;0.30;99.90;;;;;;5044374;28;20292;-68
2024/01/16 01:02:56;;;;;;;8.68;1.02;;;0.30;99.90;;;;;;5024393;28;20052;-68
2024/01/16 01:05:27;;;;;;;7.43;1.25;;;0.30;99.90;;;;;;5040413;28;20030;-68
2024/01/16 01:07:54;;;;;;;6.05;1.13;;;0.20;99.90;;;;;;5021308;28;20109;-67
2024/01/16 01:10:20;;;;;;;8.52;1.20;;;0.20;99.90;;;;;;5023659;28;20048;-67
2024/01/16 01:12:45;;;;;;;4.15;1.20;;;0.20;99.90;;;;;;5019190;28;20033;-68
2024/01/16 01:15:11;;;;;;;6.60;0.93;;;0.20;99.90;;;;;;5012126;28;20049;-67
2024/01/16 01:17:37;;;;;;;5.35;1.52;;;0.20;99.90;;;;;;5020112;28;20116;-68
2024/01/16 01:20:03;;;;;;;6.13;0.90;;;0.20;99.90;;;;;;5041023;28;20156;-67
2024/01/16 01:22:28;;;;;;;3.45;0.90;;;0.20;99.90;;;;;;5018484;28;20044;-67
2024/01/16 01:24:54;;;;;;;7.07;1.15;;;0.10;99.90;;;;;;5038182;28;20373;-67
2024/01/16 01:27:20;;;;;;;5.57;1.13;;;0.10;99.90;;;;;;5038803;28;20029;-68
2024/01/16 01:29:46;;;;;;;4.00;1.13;;;0.10;99.90;;;;;;5024697;28;20048;-68
2024/01/16 01:32:11;;;;;;;7.82;1.13;;;0.10;99.90;;;;;;5037389;28;20495;-67
2024/01/16 01:34:38;;;;;;;7.97;1.10;;;0.10;99.90;;;;;;5041582;28;20037;-68
2024/01/16 01:37:04;;;;;;;7.82;1.20;;;0.10;99.90;;;;;;5048002;28;20404;-67
2024/01/16 01:39:30;;;;;;;5.00;0.90;;;0.10;99.90;;;;;;5041130;28;20036;-67
2024/01/16 01:41:55;;;;;;;5.97;1.38;;;0.10;99.90;;;;;;5041291;28;20041;-68
2024/01/16 01:44:21;;;;;;;6.47;1.17;;;0.10;99.90;;;;;;5030820;28;20051;-68
2024/01/16 01:46:47;;;;;;;5.35;0.90;;;0.00;99.90;;;;;;5014880;28;20120;-68
2024/01/16 01:49:15;;;;;;;5.65;1.17;;;0.10;99.90;;;;;;5030897;28;20041;-68
2024/01/16 01:51:41;;;;;;;5.60;1.02;;;0.00;99.90;;;;;;5021066;28;20041;-68
2024/01/16 01:54:07;;;;;;;7.95;1.30;;;0.00;99.90;;;;;;5032576;28;20025;-68
2024/01/16 01:56:33;;;;;;;5.00;0.98;;;0.10;99.90;;;;;;5044741;28;20160;-67
2024/01/16 01:58:59;;;;;;;3.65;0.90;;;0.10;99.90;;;;;;5033512;28;20496;-68
2024/01/16 02:01:27;;;;;;;10.82;1.45;;;0.00;99.90;;;;;;5040309;28;20049;-68
2024/01/16 02:03:56;;;;;;;9.45;1.20;;;0.00;99.90;;;;;;5036833;28;20045;-68
2024/01/16 02:06:22;;;;;;;4.90;0.98;;;0.00;99.90;;;;;;5033916;28;20042;-68
2024/01/16 02:08:48;;;;;;;4.95;1.05;;;0.00;99.90;;;;;;5023685;28;20036;-68
2024/01/16 02:11:14;;;;;;;7.03;1.20;;;0.00;99.90;;;;;;5040727;28;20076;-68
2024/01/16 02:13:41;;;;;;;8.90;1.35;;;0.00;99.90;;;;;;5015359;28;20041;-68
2024/01/16 02:16:17;;;;;;;9.23;1.33;;;0.00;99.90;;;;;;5045502;28;20642;-68
2024/01/16 02:18:43;;;;;;;6.65;1.48;;;0.00;99.90;;;;;;5033541;28;20044;-67
2024/01/16 02:21:09;;;;;;;5.20;1.00;;;0.00;99.90;;;;;;5016702;28;20037;-68
2024/01/16 02:23:35;;;;;;;7.65;1.27;;;0.00;99.90;;;;;;5041753;28;20067;-68
2024/01/16 02:26:01;;;;;;;8.30;1.15;;;0.00;99.90;;;;;;5019824;28;20400;-68
2024/01/16 02:28:27;;;;;;;9.27;1.30;;;0.00;99.90;;;;;;5037809;28;20113;-68
2024/01/16 02:30:53;;;;;;;6.50;1.17;;;0.00;99.90;;;;;;5033678;28;20124;-68
2024/01/16 02:33:18;;;;;;;6.65;1.15;;;0.00;99.90;;;;;;5043393;28;20037;-67
2024/01/16 02:35:44;;;;;;;7.60;1.40;;;0.00;99.90;;;;;;5009061;28;20120;-68
2024/01/16 02:38:10;;;;;;;8.10;1.38;;;-0.10;99.90;;;;;;5017151;28;20037;-68
2024/01/16 02:40:35;;;;;;;9.82;1.38;;;-0.10;99.90;;;;;;5051705;28;20519;-68
2024/01/16 02:43:01;;;;;;;8.45;1.00;;;0.00;99.90;;;;;;5030678;28;20209;-68
2024/01/16 02:45:26;;;;;;;9.48;1.30;;;-0.10;99.90;;;;;;5044581;28;20053;-68
2024/01/16 02:47:52;;;;;;;3.55;1.10;;;-0.10;99.90;;;;;;5035332;28;20037;-68
2024/01/16 02:50:20;;;;;;;11.25;1.50;;;-0.10;99.90;;;;;;5042714;28;20065;-68
2024/01/16 02:52:45;;;;;;;8.00;1.23;;;-0.10;99.90;;;;;;5048070;28;20040;-68
2024/01/16 02:55:11;;;;;;;6.03;1.13;;;0.00;99.90;;;;;;5035658;28;20091;-68
2024/01/16 02:57:36;;;;;;;7.88;1.13;;;0.00;99.90;;;;;;5036108;28;20041;-68
2024/01/16 03:00:03;;;;;;;10.15;1.17;;;0.00;99.90;;;;;;5049122;28;20033;-68
2024/01/16 03:02:29;;;;;;;7.32;1.30;;;0.00;99.90;;;;;;5048518;28;20041;-68
2024/01/16 03:04:55;;;;;;;8.85;1.60;;;0.00;99.90;;;;;;5038655;28;20111;-68
2024/01/16 03:07:21;;;;;;;7.95;1.25;;;0.00;99.90;;;;;;5041140;28;20033;-67
2024/01/16 03:09:46;;;;;;;9.02;1.58;;;0.00;99.90;;;;;;5040957;28;20496;-68
2024/01/16 03:12:12;;;;;;;7.13;1.00;;;0.00;99.90;;;;;;5037924;28;20150;-68
2024/01/16 03:14:38;;;;;;;9.73;1.58;;;0.00;99.90;;;;;;5043733;28;20041;-68
2024/01/16 03:17:04;;;;;;;5.10;1.25;;;0.00;99.90;;;;;;5049682;28;20037;-68
2024/01/16 03:19:30;;;;;;;7.72;1.60;;;0.00;99.90;;;;;;5035564;28;20083;-68
2024/01/16 03:21:55;;;;;;;5.68;1.27;;;0.00;99.90;;;;;;5039333;28;20120;-68
2024/01/16 03:24:21;;;;;;;8.40;1.52;;;0.00;99.90;;;;;;5016162;28;20450;-68
2024/01/16 03:26:47;;;;;;;10.23;1.40;;;0.00;99.90;;;;;;5022190;28;20056;-68
2024/01/16 03:29:13;;;;;;;4.82;1.25;;;0.00;99.90;;;;;;5032529;28;20041;-68
2024/01/16 03:31:38;;;;;;;7.78;1.15;;;0.00;99.90;;;;;;5037670;28;20388;-68
2024/01/16 03:34:04;;;;;;;8.80;1.75;;;0.00;99.90;;;;;;5020493;28;20033;-68
2024/01/16 03:36:29;;;;;;;9.73;1.80;;;0.00;99.90;;;;;;5022292;28;20040;-68
2024/01/16 03:38:55;;;;;;;7.05;1.05;;;0.00;99.90;;;;;;5032740;28;20045;-68
2024/01/16 03:41:21;;;;;;;9.38;1.42;;;0.00;99.90;;;;;;5019050;28;20041;-68
2024/01/16 03:43:46;;;;;;;9.80;1.13;;;0.00;99.90;;;;;;5036392;28;20045;-68
2024/01/16 03:46:12;;;;;;;8.57;1.30;;;0.00;99.90;;;;;;5045120;28;20164;-68
2024/01/16 03:48:38;;;;;;;7.88;1.60;;;0.00;99.90;;;;;;5042915;28;20036;-68
2024/01/16 03:51:05;;;;;;;11.02;1.50;;;-0.10;99.90;;;;;;5035734;28;20045;-68
2024/01/16 03:53:31;;;;;;;6.55;1.48;;;-0.10;99.90;;;;;;5017835;28;20052;-68
2024/01/16 03:55:56;;;;;;;13.73;1.80;;;-0.10;99.90;;;;;;5043406;28;20029;-68
2024/01/16 03:58:22;;;;;;;6.22;1.30;;;-0.10;99.90;;;;;;5044263;28;20039;-68
2024/01/16 04:00:50;;;;;;;5.93;1.00;;;-0.10;99.90;;;;;;5039597;28;20038;-68
2024/01/16 04:03:16;;;;;;;6.15;1.13;;;-0.10;99.90;;;;;;5046114;28;20036;-68
2024/01/16 04:05:42;;;;;;;8.40;1.52;;;0.00;99.90;;;;;;5038270;28;20033;-68
2024/01/16 04:08:07;;;;;;;7.25;1.60;;;-0.10;99.90;;;;;;5044469;28;20041;-68
2024/01/16 04:10:33;;;;;;;8.18;1.33;;;-0.10;99.90;;;;;;5045259;28;20039;-68
2024/01/16 04:13:03;;;;;;;9.88;1.52;;;-0.10;99.90;;;;;;5031031;28;20048;-68
2024/01/16 04:15:28;;;;;;;5.70;1.40;;;-0.10;99.90;;;;;;5031515;28;20041;-68
2024/01/16 04:17:54;;;;;;;9.63;1.60;;;0.00;99.90;;;;;;5021642;28;20050;-68
2024/01/16 04:20:20;;;;;;;7.47;1.38;;;0.00;99.90;;;;;;5041370;28;20048;-68
2024/01/16 04:22:46;;;;;;;8.30;1.10;;;0.00;99.90;;;;;;5040022;28;20076;-68
2024/01/16 04:25:12;;;;;;;8.23;1.13;;;0.00;99.90;;;;;;5041750;28;20083;-68
2024/01/16 04:27:37;;;;;;;8.60;1.20;;;0.00;99.90;;;;;;5020297;28;20033;-68
2024/01/16 04:30:04;;;;;;;6.05;1.30;;;0.00;99.90;;;;;;5042016;28;20037;-68
2024/01/16 04:32:29;;;;;;;5.95;1.10;;;0.00;99.90;;;;;;5027212;28;20037;-68
2024/01/16 04:34:55;;;;;;;4.93;1.38;;;0.00;99.90;;;;;;5020777;28;20495;-69
2024/01/16 04:37:20;;;;;;;8.10;1.10;;;0.00;99.90;;;;;;5023246;28;20041;-67
2024/01/16 04:39:46;;;;;;;6.68;1.65;;;0.00;99.90;;;;;;5039688;28;20040;-67
2024/01/16 04:42:11;;;;;;;12.23;1.42;;;0.00;99.90;;;;;;5031895;28;20045;-67
2024/01/16 04:44:37;;;;;;;9.30;1.45;;;0.00;99.90;;;;;;5037385;28;20096;-69
2024/01/16 04:47:02;;;;;;;7.68;1.63;;;0.00;99.90;;;;;;5037621;28;20404;-67
2024/01/16 04:49:28;;;;;;;8.43;1.52;;;0.50;99.90;;;;;;5039994;28;20072;-67
2024/01/16 04:51:54;;;;;;;6.35;1.55;;;0.10;99.90;;;;;;5040866;28;20396;-67
2024/01/16 04:54:19;;;;;;;6.78;1.10;;;0.10;99.90;;;;;;5020554;28;20042;-69
2024/01/16 04:56:45;;;;;;;8.88;1.48;;;0.10;99.90;;;;;;5021322;28;20049;-67
2024/01/16 04:59:10;;;;;;;6.13;1.30;;;0.10;99.90;;;;;;5045948;28;20076;-67
2024/01/16 05:01:36;;;;;;;8.45;1.48;;;0.10;99.90;;;;;;5037870;28;20405;-67
2024/01/16 05:04:03;;;;;;;9.70;1.48;;;0.10;99.90;;;;;;5013124;28;20045;-69
2024/01/16 05:06:29;;;;;;;4.50;1.40;;;0.20;99.90;;;;;;5019320;28;20047;-67
2024/01/16 05:08:55;;;;;;;7.38;1.48;;;0.10;99.90;;;;;;5038472;28;20052;-67
2024/01/16 05:11:21;;;;;;;13.02;1.58;;;0.10;99.90;;;;;;5017190;28;20037;-67
2024/01/16 05:13:46;;;;;;;8.07;1.63;;;0.20;99.90;;;;;;5038507;28;20045;-67
2024/01/16 05:16:13;;;;;;;11.35;1.58;;;0.10;99.90;;;;;;5037990;28;20033;-68
2024/01/16 05:18:41;;;;;;;7.82;1.50;;;0.10;99.90;;;;;;5038331;28;20068;-68
2024/01/16 05:21:07;;;;;;;4.60;1.42;;;0.20;99.90;;;;;;5020455;28;20075;-67
2024/01/16 05:23:32;;;;;;;10.93;1.83;;;0.20;99.90;;;;;;5025907;28;20090;-68
2024/01/16 05:25:58;;;;;;;7.05;1.30;;;0.20;99.90;;;;;;5037458;28;20044;-69
2024/01/16 05:28:24;;;;;;;11.95;2.17;;;0.10;99.90;;;;;;5050164;28;20431;-67
2024/01/16 05:30:49;;;;;;;7.57;1.40;;;0.10;99.90;;;;;;5016677;28;20107;-67
2024/01/16 05:33:15;;;;;;;8.77;1.67;;;0.10;99.90;;;;;;4996204;28;20188;-68
2024/01/16 05:35:41;;;;;;;10.07;1.35;;;0.10;99.90;;;;;;5039613;28;20069;-68
2024/01/16 05:38:06;;;;;;;3.08;1.20;;;0.10;99.90;;;;;;5038114;28;20095;-69
2024/01/16 05:40:32;;;;;;;10.82;1.48;;;0.20;99.90;;;;;;5055438;22;21091;-67
2024/01/16 05:42:57;;;;;;;4.25;1.10;;;0.10;99.90;;;;;;5046177;28;20422;-68
2024/01/16 05:45:23;;;;;;;6.75;1.30;;;0.10;99.90;;;;;;5032230;28;20033;-67
2024/01/16 05:47:49;;;;;;;6.90;1.50;;;0.10;99.90;;;;;;5030106;28;20040;-66
2024/01/16 05:50:18;;;;;;;5.72;1.58;;;0.20;99.90;;;;;;5013244;28;20037;-68
2024/01/16 05:52:43;;;;;;;8.43;1.63;;;0.20;99.90;;;;;;5029071;28;20381;-68
2024/01/16 05:55:10;;;;;;;5.95;2.00;;;0.20;99.90;;;;;;5011610;28;20039;-67
2024/01/16 05:57:37;;;;;;;8.35;1.90;;;0.20;99.90;;;;;;5031556;28;20092;-68
2024/01/16 06:00:05;;;;;;;5.47;1.92;;;0.30;99.90;;;;;;5013121;28;20061;-68
2024/01/16 06:02:31;;;;;;;7.78;2.20;;;0.30;99.90;;;;;;5029497;28;20045;-68
2024/01/16 06:04:56;;;;;;;8.63;2.17;;;0.30;99.90;;;;;;5029619;28;20037;-68
2024/01/16 06:07:22;;;;;;;10.73;2.20;;;0.30;99.90;;;;;;5011007;28;20040;-68
2024/01/16 06:09:47;;;;;;;8.95;2.35;;;0.30;99.90;;;;;;5042693;28;20402;-67
2024/01/16 06:12:13;;;;;;;7.75;2.17;;;0.30;99.90;;;;;;5045453;28;20072;-68
2024/01/16 06:14:39;;;;;;;8.88;2.20;;;0.30;99.90;;;;;;5024331;28;20029;-68
2024/01/16 06:17:06;;;;;;;10.10;2.10;;;0.30;99.90;;;;;;5041930;28;20040;-68
2024/01/16 06:19:32;;;;;;;6.65;2.25;;;0.30;99.90;;;;;;5026686;28;20515;-68
2024/01/16 06:21:58;;;;;;;9.02;2.35;;;0.30;99.90;;;;;;5037148;28;20099;-65
2024/01/16 06:24:24;;;;;;;6.40;2.03;;;0.30;99.90;;;;;;5029847;28;20412;-67
2024/01/16 06:26:50;;;;;;;10.57;2.50;;;0.30;99.90;;;;;;5029565;28;20033;-68
2024/01/16 06:29:15;;;;;;;8.63;2.20;;;0.30;99.90;;;;;;5017817;28;20518;-68
2024/01/16 06:31:41;;;;;;;8.30;2.00;;;0.30;99.90;;;;;;5028704;28;20038;-68
2024/01/16 06:34:06;;;;;;;8.48;2.20;;;0.30;99.90;;;;;;5028983;28;20041;-66
2024/01/16 06:36:32;;;;;;;10.15;2.50;;;0.30;99.90;;;;;;5036048;28;20057;-68
2024/01/16 06:38:58;;;;;;;11.63;2.10;;;0.30;99.90;;;;;;5047856;28;20113;-68
2024/01/16 06:41:23;;;;;;;7.30;2.47;;;0.20;99.90;;;;;;5035255;28;20054;-68
2024/01/16 06:43:49;;;;;;;12.10;2.30;;;0.30;99.90;;;;;;5041102;28;20037;-68
2024/01/16 06:46:14;;;;;;;9.57;2.38;;;0.20;99.90;;;;;;5035931;28;20561;-68
2024/01/16 06:48:40;;;;;;;10.10;2.40;;;0.30;99.90;;;;;;5020505;28;20118;-68
2024/01/16 06:51:07;;;;;;;8.30;2.45;;;0.30;99.90;;;;;;5026031;28;20087;-68
2024/01/16 06:53:33;;;;;;;6.22;2.60;;;0.30;99.90;;;;;;5022135;28;20041;-68
2024/01/16 06:55:59;;;;;;;8.45;2.45;;;0.30;99.90;;;;;;5031005;28;20041;-68
2024/01/16 06:58:31;;;;;;;8.32;2.60;;;0.20;99.90;;;;;;5005631;28;20367;-68
2024/01/16 07:01:04;;;;;;;11.43;2.65;;;0.30;99.90;;;;;;5032187;28;20049;-68
2024/01/16 07:03:30;;;;;;;9.73;2.80;;;0.30;99.90;;;;;;5036696;28;20488;-68
2024/01/16 07:05:55;;;;;;;9.63;3.20;;;0.20;99.90;;;;;;5037387;28;20044;-68
2024/01/16 07:08:21;;;;;;;9.38;2.90;;;0.30;99.90;;;;;;5007672;28;20045;-68
2024/01/16 07:10:46;;;;;;;10.77;3.13;;;0.30;99.90;;;;;;5025946;28;20037;-68
2024/01/16 07:13:13;;;;;;;8.45;2.92;;;0.30;99.90;;;;;;5021810;28;20120;-68
2024/01/16 07:15:39;;;;;;;11.50;2.92;;;0.30;99.90;;;;;;5044815;28;20069;-68
2024/01/16 07:18:05;;;;;;;11.68;3.25;;;0.30;99.90;;;;;;5035789;28;20307;-68
2024/01/16 07:20:30;;;;;;;9.25;3.03;;;0.30;99.90;;;;;;5036914;28;20037;-65
2024/01/16 07:22:56;;;;;;;7.97;2.88;;;0.30;99.90;;;;;;5026855;28;20063;-67
2024/01/16 07:25:21;;;;;;;5.43;2.63;;;0.30;99.90;;;;;;5027126;28;20120;-68
2024/01/16 07:27:49;;;;;;;8.00;2.88;;;0.30;99.90;;;;;;5033691;28;20046;-68
2024/01/16 07:30:15;;;;;;;12.68;3.30;;;0.30;99.90;;;;;;5039806;28;20112;-68
2024/01/16 07:32:41;;;;;;;7.68;3.03;;;0.30;99.90;;;;;;5015231;28;20056;-68
2024/01/16 07:35:07;;;;;;;12.35;3.50;;;0.30;99.90;;;;;;5031153;28;20030;-68
2024/01/16 07:37:32;;;;;;;9.85;3.55;;;0.30;99.90;;;;;;5033559;28;20041;-68
2024/01/16 07:39:58;;;;;;;11.52;3.90;;;0.30;99.90;;;;;;5036834;28;20076;-65
2024/01/16 07:42:24;;;;;;;10.05;4.05;;;2.00;99.90;;;;;;5029956;28;20046;-68
2024/01/16 07:44:49;;;;;;;10.40;4.20;;;0.30;99.90;;;;;;5031997;28;20029;-68
2024/01/16 07:47:15;;;;;;;10.30;4.03;;;0.30;99.90;;;;;;5035041;28;20454;-68
2024/01/16 07:49:42;;;;;;;10.93;4.13;;;0.30;99.90;;;;;;5030774;28;20034;-68
2024/01/16 07:52:09;;;;;;;13.80;4.68;;;0.30;99.90;;;;;;5033626;28;20045;-68
2024/01/16 07:54:35;;;;;;;11.95;5.07;;;0.30;99.90;;;;;;5020030;28;20132;-68
2024/01/16 07:57:01;;;;;;;12.00;5.20;;;0.40;99.90;;;;;;5028910;28;20125;-68
2024/01/16 07:59:26;;;;;;;10.55;5.03;;;0.40;99.90;;;;;;5026265;28;20411;-68
2024/01/16 08:01:53;;;;;;;20.33;5.68;;;0.40;99.90;;;;;;5033711;28;20045;-68
2024/01/16 08:04:19;;;;;;;16.20;5.32;;;0.40;99.90;;;;;;5013756;28;20124;-66
2024/01/16 08:06:45;;;;;;;10.63;5.00;;;0.50;99.90;;;;;;5031248;28;20141;-68
2024/01/16 08:09:12;;;;;;;14.50;5.53;;;0.50;99.90;;;;;;5031142;28;20041;-68
2024/01/16 08:11:39;;;;;;;15.60;5.43;;;0.50;99.90;;;;;;5013154;28;20396;-68
2024/01/16 08:14:05;;;;;;;11.30;5.50;;;0.50;99.90;;;;;;5030824;28;20108;-68
2024/01/16 08:16:30;;;;;;;13.77;5.38;;;0.50;99.90;;;;;;5033279;28;20075;-68
2024/01/16 08:18:56;;;;;;;16.88;5.97;;;0.60;99.90;;;;;;5034153;28;20519;-68
2024/01/16 08:21:22;;;;;;;15.23;5.95;;;0.60;99.90;;;;;;5030844;28;20724;-68
2024/01/16 08:23:47;;;;;;;16.90;5.97;;;0.50;99.90;;;;;;5036111;28;20522;-66
2024/01/16 08:26:13;;;;;;;17.67;5.90;;;0.60;99.90;;;;;;5034164;28;20102;-66
2024/01/16 08:28:38;;;;;;;16.40;6.43;;;0.60;99.90;;;;;;5032958;28;20044;-68
2024/01/16 08:31:04;;;;;;;13.43;6.05;;;0.60;99.90;;;;;;5034228;28;20040;-68
2024/01/16 08:33:30;;;;;;;12.07;5.57;;;0.60;99.90;;;;;;5032065;28;20445;-68
2024/01/16 08:35:56;;;;;;;13.00;5.90;;;0.60;99.90;;;;;;5012825;28;20045;-68
2024/01/16 08:38:22;;;;;;;14.73;6.32;;;0.50;99.90;;;;;;5012887;28;20534;-66
2024/01/16 08:40:48;;;;;;;14.38;6.35;;;0.60;99.90;;;;;;5034415;28;20084;-68
2024/01/16 08:43:14;;;;;;;19.08;6.43;;;1.90;99.90;;;;;;5028840;28;20100;-65
2024/01/16 08:45:39;;;;;;;17.05;6.07;;;0.60;99.90;;;;;;5015105;28;20076;-67
2024/01/16 08:48:05;;;;;;;14.82;6.15;;;0.70;99.90;;;;;;4998254;28;20416;-67
2024/01/16 08:50:31;;;;;;;15.57;6.57;;;0.60;99.90;;;;;;5024795;28;20036;-67
2024/01/16 08:52:56;;;;;;;13.23;6.03;;;0.60;99.90;;;;;;5037091;28;20124;-67
2024/01/16 08:55:22;;;;;;;13.32;6.35;;;0.60;99.90;;;;;;5031996;28;20037;-67
2024/01/16 08:57:47;;;;;;;12.60;6.30;;;0.60;99.90;;;;;;5023515;28;20408;-67
2024/01/16 09:00:15;;;;;;;11.65;5.93;;;0.70;99.90;;;;;;5020310;28;20401;-67
2024/01/16 09:02:41;;;;;;;12.57;6.00;;;-0.30;99.90;;;;;;5034732;28;20052;-67
2024/01/16 09:05:07;;;;;;;11.80;5.80;;;0.70;99.90;;;;;;5042281;28;20435;-67
2024/01/16 09:07:32;;;;;;;13.30;5.63;;;0.70;99.90;;;;;;5032464;28;20044;-66
2024/01/16 09:09:58;;;;;;;16.45;6.30;;;0.70;99.90;;;;;;5031247;28;20041;-66
2024/01/16 09:12:24;;;;;;;15.50;5.57;;;0.70;99.90;;;;;;5037979;28;20037;-67
2024/01/16 09:14:49;;;;;;;12.55;5.40;;;0.70;99.90;;;;;;5027703;28;20041;-67
2024/01/16 09:17:15;;;;;;;16.77;5.88;;;0.70;99.90;;;;;;5017767;28;20118;-67
2024/01/16 09:19:41;;;;;;;12.25;5.20;;;0.80;99.90;;;;;;5027374;28;20043;-68
2024/01/16 09:22:06;;;;;;;11.75;4.78;;;0.80;99.90;;;;;;5030464;28;20037;-67
2024/01/16 09:24:32;;;;;;;11.20;4.50;;;0.80;99.90;;;;;;5027320;28;20381;-67
2024/01/16 09:26:58;;;;;;;11.82;4.88;;;0.80;99.90;;;;;;5010556;28;20037;-66
2024/01/16 09:29:24;;;;;;;9.45;5.15;;;0.80;99.90;;;;;;5035695;28;20045;-67
2024/01/16 09:31:50;;;;;;;15.80;5.22;;;0.90;99.90;;;;;;5008024;28;20096;-67
2024/01/16 09:34:17;;;;;;;11.07;5.07;;;0.90;99.90;;;;;;5012136;28;20037;-67
2024/01/16 09:36:42;;;;;;;8.38;5.18;;;0.90;99.90;;;;;;5033526;28;20037;-67
2024/01/16 09:39:08;;;;;;;13.85;5.30;;;0.90;99.90;;;;;;5012578;28;20053;-67
2024/01/16 09:41:37;;;;;;;15.15;5.55;;;0.90;99.90;;;;;;5036391;28;20415;-67
2024/01/16 09:44:04;;;;;;;12.90;5.32;;;0.90;99.90;;;;;;5028576;28;20037;-67
2024/01/16 09:46:31;;;;;;;12.65;4.50;;;0.90;99.90;;;;;;5023627;28;20037;-67
2024/01/16 09:48:59;;;;;;;10.98;4.75;;;0.90;99.90;;;;;;5016120;28;20087;-67
2024/01/16 09:51:24;;;;;;;11.80;4.95;;;1.00;99.90;;;;;;5014567;28;20038;-67
2024/01/16 09:53:51;;;;;;;11.13;4.75;;;1.00;99.90;;;;;;5022175;28;20806;-67
2024/01/16 09:56:20;;;;;;;16.98;4.70;;;1.00;99.90;;;;;;4996052;28;20582;-67
2024/01/16 09:58:49;;;;;;;9.68;3.90;;;1.00;99.90;;;;;;4983460;28;20052;-67
2024/01/16 10:01:16;;;;;;;9.40;3.78;;;1.10;99.90;;;;;;5004696;28;20056;-67
2024/01/16 10:03:44;;;;;;;9.18;3.47;;;1.10;99.90;;;;;;5014928;28;20041;-67
2024/01/16 10:06:11;;;;;;;7.57;3.60;;;1.10;99.90;;;;;;5023666;28;20041;-67
2024/01/16 10:08:37;;;;;;;7.82;3.67;;;1.10;99.90;;;;;;5001322;28;20443;-67
2024/01/16 10:11:03;;;;;;;13.50;3.22;;;1.10;99.90;;;;;;5001068;28;20049;-67
2024/01/16 10:13:29;;;;;;;8.00;3.15;;;1.10;99.90;;;;;;5024877;28;20041;-67
2024/01/16 10:15:55;;;;;;;8.43;3.20;;;1.10;99.90;;;;;;5029008;28;20516;-66
2024/01/16 10:18:32;;;;;;;8.50;3.17;;;1.10;99.90;;;;;;5010024;28;20126;-66
2024/01/16 10:20:57;;;;;;;8.15;2.13;;;1.20;99.90;;;;;;5041432;28;20033;-67
2024/01/16 10:23:28;;;;;;;4.13;2.03;;;1.10;99.90;;;;;;5031930;28;20530;-67
2024/01/16 10:26:11;;;;;;;9.20;2.25;;;1.20;99.90;;;;;;5029211;28;20072;-67
2024/01/16 10:28:38;;;;;;;7.80;2.08;;;1.10;99.90;;;;;;5011369;28;20120;-67
2024/01/16 10:31:08;;;;;;;5.93;1.92;;;1.10;99.90;;;;;;5028830;28;20171;-67
2024/01/16 10:33:37;;;;;;;7.18;2.17;;;1.10;99.90;;;;;;5031841;28;20030;-67
2024/01/16 10:36:12;;;;;;;10.00;2.03;;;1.20;99.90;;;;;;5034749;28;20419;-67
2024/01/16 10:38:44;;;;;;;6.97;1.65;;;1.10;99.90;;;;;;5020276;28;20396;-67
2024/01/16 10:41:13;;;;;;;5.63;1.83;;;1.20;99.90;;;;;;5039652;28;20400;-67
2024/01/16 10:43:40;;;;;;;10.00;1.98;;;1.20;99.90;;;;;;5036832;28;20042;-67
2024/01/16 10:46:15;;;;;;;8.07;1.90;;;1.20;99.90;;;;;;5022722;28;20506;-67
2024/01/16 10:48:58;;;;;;;6.45;1.83;;;1.20;99.90;;;;;;5017957;28;20045;-67
2024/01/16 10:51:26;;;;;;;8.25;2.13;;;1.20;99.90;;;;;;5018744;28;20126;-67
2024/01/16 10:53:57;;;;;;;5.38;2.05;;;1.20;99.90;;;;;;5034231;28;20104;-67
2024/01/16 10:56:23;;;;;;;7.30;2.30;;;1.20;99.90;;;;;;5027647;28;20048;-68
2024/01/16 10:58:59;;;;;;;10.18;2.40;;;1.20;99.90;;;;;;5034801;28;20403;-67
2024/01/16 11:01:25;;;;;;;9.80;3.15;;;1.20;99.90;;;;;;5032831;28;20044;-66
2024/01/16 11:03:52;;;;;;;10.50;2.95;;;1.30;99.90;;;;;;5016376;28;20052;-66
2024/01/16 11:06:19;;;;;;;11.32;3.25;;;1.30;99.90;;;;;;5029504;28;20041;-66
2024/01/16 11:08:48;;;;;;;13.65;3.38;;;1.20;99.90;;;;;;5030110;28;20037;-67
2024/01/16 11:11:15;;;;;;;12.77;3.33;;;1.30;99.90;;;;;;5017764;28;20033;-69
2024/01/16 11:13:44;;;;;;;8.93;3.75;;;1.30;99.90;;;;;;5031474;28;20128;-67
2024/01/16 11:16:11;;;;;;;9.65;3.55;;;1.30;99.90;;;;;;5014006;28;20495;-68
2024/01/16 11:18:37;;;;;;;8.10;4.30;;;1.30;99.90;;;;;;5035446;28;20041;-68
2024/01/16 11:21:05;;;;;;;9.80;4.45;;;1.30;99.90;;;;;;5047612;28;20039;-68
2024/01/16 11:23:31;;;;;;;13.32;5.20;;;1.30;99.90;;;;;;5006794;28;20078;-67
2024/01/16 11:25:57;;;;;;;12.35;5.10;;;1.30;99.90;;;;;;5027310;28;20036;-67
2024/01/16 11:28:29;;;;;;;12.02;4.85;;;1.20;99.90;;;;;;5026154;28;20091;-69
2024/01/16 11:30:56;;;;;;;13.52;5.20;;;1.20;99.90;;;;;;5033533;28;20036;-68
2024/01/16 11:33:31;;;;;;;18.05;5.72;;;1.20;99.90;;;;;;5032034;28;20041;-68
2024/01/16 11:35:56;;;;;;;16.33;6.30;;;1.20;99.90;;;;;;5013135;28;20048;-68
2024/01/16 11:38:26;;;;;;;17.13;6.32;;;1.20;99.90;;;;;;5016307;28;20120;-67
2024/01/16 11:40:53;;;;;;;13.15;6.07;;;1.20;99.90;;;;;;5061115;22;20046;-77
2024/01/16 11:43:35;;;;;;;13.48;6.10;;;1.20;99.90;;;;;;5033217;28;20459;-77
2024/01/16 11:46:07;;;;;;;13.25;6.97;;;1.20;99.90;;;;;;5033119;28;20120;-78
2024/01/16 11:48:34;;;;;;;20.95;7.90;;;1.20;99.90;;;;;;5035116;28;20444;-78
2024/01/16 11:50:59;;;;;;;14.75;7.47;;;1.20;99.90;;;;;;5016629;28;20065;-77
2024/01/16 11:53:40;;;;;;;17.20;8.20;;;1.30;99.90;;;;;;5012855;28;20497;-77
2024/01/16 11:56:08;;;;;;;21.92;7.40;;;1.20;99.90;;;;;;5015410;28;20037;-78
2024/01/16 11:58:59;;;;;;;15.85;7.63;;;1.20;99.90;;;;;;5034123;28;20124;-78
2024/01/16 12:01:26;;;;;;;16.67;7.93;;;1.30;99.90;;;;;;5015740;28;20437;-78
2024/01/16 12:04:05;;;;;;;21.83;7.65;;;1.30;99.90;;;;;;5016109;28;20033;-77
2024/01/16 12:06:31;;;;;;;15.98;7.10;;;1.30;99.90;;;;;;5021269;28;20470;-77
2024/01/16 12:09:20;;;;;;;20.73;7.78;;;1.30;99.90;;;;;;5010887;28;20406;-77
2024/01/16 12:11:57;;;;;;;18.88;7.13;;;1.40;99.90;;;;;;5010362;28;20042;-77
2024/01/16 12:14:23;;;;;;;17.58;7.38;;;1.30;99.90;;;;;;5016678;28;20041;-77
2024/01/16 12:16:48;;;;;;;21.55;7.38;;;1.40;99.90;;;;;;5016295;28;20051;-77
2024/01/16 12:19:14;;;;;;;18.92;7.40;;;1.40;99.90;;;;;;5016271;28;20053;-79
2024/01/16 12:21:41;;;;;;;22.83;6.53;;;1.40;99.90;;;;;;5009271;28;20037;-77
2024/01/16 12:24:07;;;;;;;19.88;7.35;;;1.40;99.90;;;;;;5013966;28;20041;-78
2024/01/16 12:26:33;;;;;;;21.40;7.65;;;1.40;99.90;;;;;;5007342;28;20060;-78
2024/01/16 12:28:58;;;;;;;16.10;6.40;;;1.40;99.90;;;;;;5020879;28;20073;-78
2024/01/16 12:31:25;;;;;;;15.00;6.90;;;1.40;99.90;;;;;;5000715;28;20045;-78
2024/01/16 12:33:51;;;;;;;19.60;6.40;;;1.50;99.90;;;;;;5017969;28;20033;-78
2024/01/16 12:36:17;;;;;;;13.45;5.93;;;1.50;99.90;;;;;;5025373;28;20046;-78
2024/01/16 12:38:42;;;;;;;14.60;6.05;;;1.50;99.90;;;;;;5016964;28;20405;-78
2024/01/16 12:41:10;;;;;;;13.68;5.85;;;1.60;99.90;;;;;;5013088;28;20048;-78
2024/01/16 12:43:38;;;;;;;15.45;5.97;;;1.60;99.90;;;;;;5006681;28;20486;-78
2024/01/16 12:46:06;;;;;;;18.17;5.65;;;1.60;99.90;;;;;;5013782;28;20490;-78
2024/01/16 12:48:31;;;;;;;13.60;5.97;;;1.60;99.90;;;;;;5013561;28;20516;-78
2024/01/16 12:51:04;;;;;;;13.35;5.75;;;1.60;99.90;;;;;;5034346;28;20124;-78